Genesis Eagle — WDG9347 — position and weather

sailwx.info

Track history (hours):
 
Tides and Currents Weather Stations Pressure Air Temp Water Temp Dewpoint Dewpoint Depression Visibility Wind Speed Wind Dir Waves Ship Positions

Genesis Eagle

Owner: Genesis Marine, LLC, Houston, TX. More information available from US FCC via Universal Licensing System and Coast Guard Vessel Documentation Center.

Last reported at 2018-Feb-19 08:00 UTC. Time now 2018-Feb-19 08:25 UTC.
Position N 39°34' W 075°33'.

Length 35 m; draft 6 m.

Type: Tug. MMSI: 338131000.

Date/timePositionNaut miles runAvg speedWind from/ knotsBaromVisibWave heightAir tempDewpointWater temp
2018-Feb-19 08:00N 39°34' W 075°33'2 3.9
2018-Feb-19 07:30N 39°35' W 075°35'0 0.1
2018-Feb-19 07:00N 39°35' W 075°35'0 0.0
2018-Feb-19 06:30N 39°35' W 075°35'0 0.0
2018-Feb-19 06:00N 39°35' W 075°35'0 0.0
2018-Feb-19 05:30N 39°35' W 075°35'0 0.0
2018-Feb-19 05:00N 39°35' W 075°35'0 0.0
2018-Feb-19 04:30N 39°35' W 075°35'0 0.0
2018-Feb-19 04:00N 39°35' W 075°35'0 0.0
2018-Feb-19 03:30N 39°35' W 075°35'0 0.0
2018-Feb-19 03:00N 39°35' W 075°35'0 0.0
2018-Feb-19 02:30N 39°35' W 075°35'0 0.0
2018-Feb-19 02:01N 39°35' W 075°35'0 0.0
2018-Feb-19 01:30N 39°35' W 075°35'0 0.0
2018-Feb-19 01:00N 39°35' W 075°35'0 0.0
2018-Feb-19 00:30N 39°35' W 075°35'0 0.0
2018-Feb-19 00:01N 39°35' W 075°35'0 0.0
2018-Feb-18 23:30N 39°35' W 075°35'0 0.0
2018-Feb-18 23:00N 39°35' W 075°35'0 0.0
2018-Feb-18 22:30N 39°35' W 075°35'0 0.0
2018-Feb-18 22:00N 39°35' W 075°35'0 0.0
2018-Feb-18 21:30N 39°35' W 075°35'0 0.0
2018-Feb-18 21:00N 39°35' W 075°35'0 0.0
2018-Feb-18 20:31N 39°35' W 075°35'0 0.0
2018-Feb-18 20:00N 39°35' W 075°35'0 0.0
2018-Feb-18 19:30N 39°35' W 075°35'0 0.0
2018-Feb-18 19:00N 39°35' W 075°35'0 0.0
2018-Feb-18 18:30N 39°35' W 075°35'0 0.0
2018-Feb-18 18:00N 39°35' W 075°35'0 0.0
2018-Feb-18 17:30N 39°35' W 075°35'0 0.0
2018-Feb-18 17:00N 39°35' W 075°35'0 0.0
2018-Feb-18 16:29N 39°35' W 075°35'0 0.0
2018-Feb-18 16:00N 39°35' W 075°35'0 0.0
2018-Feb-18 15:30N 39°35' W 075°35'0 0.0
2018-Feb-18 15:00N 39°35' W 075°35'0 0.0
2018-Feb-18 14:31N 39°35' W 075°35'0 0.0
2018-Feb-18 14:00N 39°35' W 075°35'0 0.0
2018-Feb-18 13:30N 39°35' W 075°35'0 0.0
2018-Feb-18 13:00N 39°35' W 075°35'0 0.0
2018-Feb-18 12:30N 39°35' W 075°35'0 0.0
2018-Feb-18 12:00N 39°35' W 075°35'0 0.0
2018-Feb-18 11:30N 39°35' W 075°35'0 0.0
2018-Feb-18 11:00N 39°35' W 075°35'0 0.0
2018-Feb-18 10:31N 39°35' W 075°35'0 0.0
2018-Feb-18 10:00N 39°35' W 075°35'0 0.0
2018-Feb-18 09:30N 39°35' W 075°35'0 0.0
2018-Feb-18 09:00N 39°35' W 075°35'0 0.0
2018-Feb-18 08:30N 39°35' W 075°35'0 0.0
2018-Feb-18 08:00N 39°35' W 075°35'0 0.0
2018-Feb-18 07:31N 39°35' W 075°35'0 0.0
2018-Feb-18 07:00N 39°35' W 075°35'0 0.0
2018-Feb-18 06:30N 39°35' W 075°35'0 0.0
2018-Feb-18 06:01N 39°35' W 075°35'0 0.1
2018-Feb-18 05:30N 39°35' W 075°35'3 6.2
2018-Feb-18 05:00N 39°33' W 075°32'4 8.9
2018-Feb-18 04:30N 39°29' W 075°34'510.6
2018-Feb-18 04:00N 39°24' W 075°30'611.6
2018-Feb-18 03:30N 39°20' W 075°25'611.5
2018-Feb-18 03:00N 39°16' W 075°20'611.2
2018-Feb-18 02:30N 39°11' W 075°16'711.1
2018-Feb-18 01:53N 39°05' W 075°11'281 8.0
2018-Feb-16 14:34N 42°19' W 070°42'1 9.5
2018-Feb-16 14:25N 42°20' W 070°44'5 9.2
2018-Feb-16 13:52N 42°23' W 070°49'5 8.2
2018-Feb-16 13:17N 42°21' W 070°55'3 8.6
2018-Feb-16 12:55N 42°20' W 070°59'3 8.3
2018-Feb-16 12:30N 42°22' W 071°03'1 0.1
2018-Feb-15 22:06N 42°23' W 071°01'1 3.6
2018-Feb-15 21:52N 42°23' W 071°03'0 0.2
2018-Feb-15 21:29N 42°23' W 071°03'0 0.0
2018-Feb-15 20:59N 42°23' W 071°03'0 0.0
2018-Feb-15 20:20N 42°23' W 071°03'0 0.0
2018-Feb-15 19:56N 42°23' W 071°03'0 0.0
2018-Feb-15 18:50N 42°23' W 071°03'0 0.0
2018-Feb-15 18:29N 42°23' W 071°03'0 0.0
2018-Feb-15 17:59N 42°23' W 071°03'0 0.0
2018-Feb-15 17:29N 42°23' W 071°03'0 0.0
2018-Feb-15 16:59N 42°23' W 071°03'0 0.0
2018-Feb-15 16:29N 42°23' W 071°03'1 0.7
2018-Feb-15 14:35N 42°24' W 071°01'0 1.1
2018-Feb-15 14:27N 42°24' W 071°01'1 2.8
2018-Feb-15 14:00N 42°23' W 071°02'2 2.8
2018-Feb-15 13:21N 42°21' W 071°02'0 0.0
2018-Feb-15 12:43N 42°21' W 071°02'1 4.5
2018-Feb-15 12:30N 42°21' W 071°01'2 2.9
2018-Feb-15 11:52N 42°20' W 070°59'0 0.1
2018-Feb-15 10:43N 42°20' W 070°59'0 0.2
2018-Feb-15 10:01N 42°20' W 070°58'0 0.0
2018-Feb-15 09:58N 42°20' W 070°58'0 0.1
2018-Feb-15 09:28N 42°20' W 070°58'0 0.0
2018-Feb-15 08:58N 42°20' W 070°58'0 0.0
2018-Feb-15 08:19N 42°20' W 070°58'0 0.0
2018-Feb-15 07:58N 42°20' W 070°58'0 0.0
2018-Feb-15 07:25N 42°20' W 070°58'0 0.0
2018-Feb-15 06:46N 42°20' W 070°58'0 0.0
2018-Feb-15 06:25N 42°20' W 070°58'0 0.0
2018-Feb-15 04:43N 42°20' W 070°58'0 0.0
2018-Feb-15 04:25N 42°20' W 070°58'0 0.0
2018-Feb-15 00:25N 42°20' W 070°59'0 0.0
2018-Feb-14 23:58N 42°20' W 070°59'0 0.1
2018-Feb-14 23:28N 42°20' W 070°59'0 0.3
2018-Feb-14 22:55N 42°20' W 070°58'0 0.1
2018-Feb-14 21:40N 42°20' W 070°58'0 0.0
2018-Feb-14 21:16N 42°20' W 070°58'6 1.2
2018-Feb-14 15:58N 42°23' W 070°51'4 8.7
2018-Feb-14 15:30N 42°23' W 070°46'5 8.9
2018-Feb-14 14:58N 42°22' W 070°39'4 9.0
2018-Feb-14 14:30N 42°22' W 070°34'4 8.9
2018-Feb-14 14:00N 42°22' W 070°28'6 9.2
2018-Feb-14 13:22N 42°21' W 070°20'3 9.4
2018-Feb-14 13:01N 42°21' W 070°15'6 9.2
2018-Feb-14 12:20N 42°20' W 070°07'4 9.1
2018-Feb-14 11:55N 42°19' W 070°02'4 9.2
2018-Feb-14 11:29N 42°17' W 069°58'7 9.2
2018-Feb-14 10:43N 42°10' W 069°54'239 5.7
2018-Feb-12 16:37N 39°41' W 074°01'2 8.4
2018-Feb-12 16:25N 39°39' W 074°02'64 5.5
2018-Feb-12 04:54N 39°05' W 075°11'4 8.7
2018-Feb-12 04:26N 39°08' W 075°14'4 8.5
2018-Feb-12 04:00N 39°11' W 075°17'4 8.1
2018-Feb-12 03:30N 39°15' W 075°19'5 9.5
2018-Feb-12 03:00N 39°18' W 075°23'5 9.1
2018-Feb-12 02:30N 39°22' W 075°27'4 8.4
2018-Feb-12 02:00N 39°25' W 075°31'4 7.7
2018-Feb-12 01:30N 39°28' W 075°34'4 7.5
2018-Feb-12 01:01N 39°32' W 075°33'3 5.8
2018-Feb-12 00:31N 39°34' W 075°34'1 2.5
2018-Feb-11 23:59N 39°35' W 075°35'0 0.0
2018-Feb-11 23:29N 39°35' W 075°35'0 0.0
2018-Feb-11 22:59N 39°35' W 075°35'0 0.0
2018-Feb-11 22:29N 39°35' W 075°35'0 0.0
2018-Feb-11 21:59N 39°35' W 075°35'0 0.0
2018-Feb-11 21:29N 39°35' W 075°35'0 0.0
2018-Feb-11 20:59N 39°35' W 075°35'0 0.0
2018-Feb-11 20:30N 39°35' W 075°35'0 0.0
2018-Feb-11 19:59N 39°35' W 075°35'0 0.0
2018-Feb-11 19:29N 39°35' W 075°35'0 0.0
2018-Feb-11 18:59N 39°35' W 075°35'0 0.0
2018-Feb-11 18:29N 39°35' W 075°35'0 0.0
2018-Feb-11 17:59N 39°35' W 075°35'0 0.0
2018-Feb-11 17:30N 39°35' W 075°35'0 0.0
2018-Feb-11 17:00N 39°35' W 075°35'0 0.0
2018-Feb-11 16:29N 39°35' W 075°35'0 0.0
2018-Feb-11 15:59N 39°35' W 075°35'0 0.0
2018-Feb-11 15:26N 39°35' W 075°35'0 0.0
2018-Feb-11 14:59N 39°35' W 075°36'0 0.0
2018-Feb-11 14:29N 39°35' W 075°35'0 0.0
2018-Feb-11 13:59N 39°35' W 075°35'0 0.0
2018-Feb-11 13:29N 39°35' W 075°35'0 0.0
2018-Feb-11 12:59N 39°35' W 075°35'0 0.0
2018-Feb-11 12:29N 39°35' W 075°35'0 0.0
2018-Feb-11 11:59N 39°35' W 075°35'0 0.0
2018-Feb-11 11:29N 39°35' W 075°35'0 0.0
2018-Feb-11 10:59N 39°35' W 075°35'0 0.0
2018-Feb-11 10:30N 39°35' W 075°35'0 0.0
2018-Feb-11 10:00N 39°35' W 075°35'0 0.0
2018-Feb-11 09:30N 39°35' W 075°35'0 0.0
2018-Feb-11 09:00N 39°35' W 075°35'0 0.0
2018-Feb-11 08:30N 39°35' W 075°35'0 0.0
2018-Feb-11 08:00N 39°35' W 075°35'0 0.0
2018-Feb-11 07:30N 39°35' W 075°35'0 0.0
2018-Feb-11 07:00N 39°35' W 075°35'0 0.0
2018-Feb-11 06:30N 39°35' W 075°35'0 0.0
2018-Feb-11 06:00N 39°35' W 075°35'0 0.0
2018-Feb-11 05:30N 39°35' W 075°35'0 0.0
2018-Feb-11 05:00N 39°35' W 075°35'0 0.0
2018-Feb-11 04:30N 39°35' W 075°35'0 0.0
2018-Feb-11 04:00N 39°35' W 075°35'0 0.0
2018-Feb-11 03:30N 39°35' W 075°35'0 0.0
2018-Feb-11 03:00N 39°35' W 075°35'0 0.0
2018-Feb-11 02:30N 39°35' W 075°35'0 0.0
2018-Feb-11 02:00N 39°35' W 075°35'0 0.0
2018-Feb-11 01:30N 39°35' W 075°35'0 0.0
2018-Feb-11 01:00N 39°35' W 075°35'0 0.0
2018-Feb-11 00:30N 39°35' W 075°35'0 0.0
2018-Feb-11 00:00N 39°35' W 075°35'0 0.0
2018-Feb-10 23:30N 39°35' W 075°35'0 0.0
2018-Feb-10 23:00N 39°35' W 075°35'0 0.0
2018-Feb-10 22:30N 39°35' W 075°35'0 0.0
2018-Feb-10 22:00N 39°35' W 075°35'0 0.0
2018-Feb-10 21:30N 39°35' W 075°35'0 0.0
2018-Feb-10 21:00N 39°35' W 075°35'0 0.0
2018-Feb-10 20:30N 39°35' W 075°35'0 0.0
2018-Feb-10 20:00N 39°35' W 075°35'0 0.0
2018-Feb-10 19:30N 39°35' W 075°35'0 0.0
2018-Feb-10 19:00N 39°35' W 075°35'0 0.0
2018-Feb-10 18:30N 39°35' W 075°35'0 0.0
2018-Feb-10 18:01N 39°35' W 075°35'0 0.0
2018-Feb-10 17:31N 39°35' W 075°35'0 0.0
2018-Feb-10 17:00N 39°35' W 075°35'0 0.1
2018-Feb-10 16:30N 39°35' W 075°35'0 0.1
2018-Feb-10 16:00N 39°35' W 075°35'0 0.0
2018-Feb-10 15:31N 39°35' W 075°35'0 0.0
2018-Feb-10 15:01N 39°35' W 075°35'0 0.0
2018-Feb-10 14:30N 39°35' W 075°35'0 0.0
2018-Feb-10 14:01N 39°35' W 075°35'0 0.0
2018-Feb-10 13:31N 39°35' W 075°35'0 0.0
2018-Feb-10 13:00N 39°35' W 075°35'0 0.0
2018-Feb-10 12:31N 39°35' W 075°35'0 0.0
2018-Feb-10 12:00N 39°35' W 075°35'0 0.0
2018-Feb-10 11:31N 39°35' W 075°35'0 0.0
2018-Feb-10 11:00N 39°35' W 075°35'0 0.0
2018-Feb-10 10:31N 39°35' W 075°35'0 0.0
2018-Feb-10 10:00N 39°35' W 075°35'0 0.0
2018-Feb-10 09:31N 39°35' W 075°36'0 0.0
2018-Feb-10 09:01N 39°35' W 075°35'0 0.0
2018-Feb-10 08:31N 39°35' W 075°35'0 0.0
2018-Feb-10 08:01N 39°35' W 075°35'0 0.0
2018-Feb-10 07:31N 39°35' W 075°35'0 0.0
2018-Feb-10 07:01N 39°35' W 075°35'0 0.0
2018-Feb-10 06:31N 39°35' W 075°35'0 0.0
2018-Feb-10 06:01N 39°35' W 075°35'0 0.0
2018-Feb-10 05:31N 39°35' W 075°35'0 0.0
2018-Feb-10 05:01N 39°35' W 075°35'0 0.0
2018-Feb-10 04:30N 39°35' W 075°35'0 0.0
2018-Feb-10 04:00N 39°35' W 075°35'0 0.0
2018-Feb-10 03:31N 39°35' W 075°35'0 0.0
2018-Feb-10 03:00N 39°35' W 075°35'0 0.0
2018-Feb-10 02:30N 39°35' W 075°35'0 0.0
2018-Feb-10 02:00N 39°35' W 075°35'0 0.0
2018-Feb-10 01:30N 39°35' W 075°35'0 0.0
2018-Feb-10 01:01N 39°35' W 075°35'0 0.0
2018-Feb-10 00:31N 39°35' W 075°35'0 0.0
2018-Feb-10 00:01N 39°35' W 075°35'0 0.0
2018-Feb-09 23:30N 39°35' W 075°35'0 0.0
2018-Feb-09 23:01N 39°35' W 075°35'0 0.0
2018-Feb-09 22:46N 39°35' W 075°35'0 0.0
2018-Feb-09 21:31N 39°35' W 075°35'0 0.0
2018-Feb-09 21:01N 39°35' W 075°35'0 0.0
2018-Feb-09 20:31N 39°35' W 075°35'3 2.9
2018-Feb-09 19:30N 39°33' W 075°33'0 0.2
2018-Feb-09 18:01N 39°33' W 075°33'0 0.0
2018-Feb-09 17:31N 39°33' W 075°33'0 0.0
2018-Feb-09 17:01N 39°33' W 075°33'0 0.0
2018-Feb-09 16:01N 39°33' W 075°33'0 0.2
2018-Feb-09 15:30N 39°33' W 075°33'10 6.9
2018-Feb-09 14:00N 39°23' W 075°29'4 8.4
2018-Feb-09 13:31N 39°20' W 075°25'4 8.7
2018-Feb-09 13:00N 39°17' W 075°21'9 9.0
2018-Feb-09 12:00N 39°09' W 075°15'  
Track history (hours):
 
Tides and Currents Weather Stations Pressure Air Temp Water Temp Dewpoint Dewpoint Depression Visibility Wind Speed Wind Dir Waves Ship Positions

Genesis Eagle

Owner: Genesis Marine, LLC, Houston, TX. More information available from US FCC via Universal Licensing System and Coast Guard Vessel Documentation Center.

Last reported at 2018-Feb-19 08:00 UTC. Time now 2018-Feb-19 08:25 UTC.
Position N 39°34' W 075°33'.

Length 35 m; draft 6 m.

Type: Tug. MMSI: 338131000.

Date/timePositionNaut miles runAvg speedWind from/ knotsBaromVisibWave heightAir tempDewpointWater temp
2018-Feb-19 08:00N 39°34' W 075°33'2 3.9
2018-Feb-19 07:30N 39°35' W 075°35'0 0.1
2018-Feb-19 07:00N 39°35' W 075°35'0 0.0
2018-Feb-19 06:30N 39°35' W 075°35'0 0.0
2018-Feb-19 06:00N 39°35' W 075°35'0 0.0
2018-Feb-19 05:30N 39°35' W 075°35'0 0.0
2018-Feb-19 05:00N 39°35' W 075°35'0 0.0
2018-Feb-19 04:30N 39°35' W 075°35'0 0.0
2018-Feb-19 04:00N 39°35' W 075°35'0 0.0
2018-Feb-19 03:30N 39°35' W 075°35'0 0.0
2018-Feb-19 03:00N 39°35' W 075°35'0 0.0
2018-Feb-19 02:30N 39°35' W 075°35'0 0.0
2018-Feb-19 02:01N 39°35' W 075°35'0 0.0
2018-Feb-19 01:30N 39°35' W 075°35'0 0.0
2018-Feb-19 01:00N 39°35' W 075°35'0 0.0
2018-Feb-19 00:30N 39°35' W 075°35'0 0.0
2018-Feb-19 00:01N 39°35' W 075°35'0 0.0
2018-Feb-18 23:30N 39°35' W 075°35'0 0.0
2018-Feb-18 23:00N 39°35' W 075°35'0 0.0
2018-Feb-18 22:30N 39°35' W 075°35'0 0.0
2018-Feb-18 22:00N 39°35' W 075°35'0 0.0
2018-Feb-18 21:30N 39°35' W 075°35'0 0.0
2018-Feb-18 21:00N 39°35' W 075°35'0 0.0
2018-Feb-18 20:31N 39°35' W 075°35'0 0.0
2018-Feb-18 20:00N 39°35' W 075°35'0 0.0
2018-Feb-18 19:30N 39°35' W 075°35'0 0.0
2018-Feb-18 19:00N 39°35' W 075°35'0 0.0
2018-Feb-18 18:30N 39°35' W 075°35'0 0.0
2018-Feb-18 18:00N 39°35' W 075°35'0 0.0
2018-Feb-18 17:30N 39°35' W 075°35'0 0.0
2018-Feb-18 17:00N 39°35' W 075°35'0 0.0
2018-Feb-18 16:29N 39°35' W 075°35'0 0.0
2018-Feb-18 16:00N 39°35' W 075°35'0 0.0
2018-Feb-18 15:30N 39°35' W 075°35'0 0.0
2018-Feb-18 15:00N 39°35' W 075°35'0 0.0
2018-Feb-18 14:31N 39°35' W 075°35'0 0.0
2018-Feb-18 14:00N 39°35' W 075°35'0 0.0
2018-Feb-18 13:30N 39°35' W 075°35'0 0.0
2018-Feb-18 13:00N 39°35' W 075°35'0 0.0
2018-Feb-18 12:30N 39°35' W 075°35'0 0.0
2018-Feb-18 12:00N 39°35' W 075°35'0 0.0
2018-Feb-18 11:30N 39°35' W 075°35'0 0.0
2018-Feb-18 11:00N 39°35' W 075°35'0 0.0
2018-Feb-18 10:31N 39°35' W 075°35'0 0.0
2018-Feb-18 10:00N 39°35' W 075°35'0 0.0
2018-Feb-18 09:30N 39°35' W 075°35'0 0.0
2018-Feb-18 09:00N 39°35' W 075°35'0 0.0
2018-Feb-18 08:30N 39°35' W 075°35'0 0.0
2018-Feb-18 08:00N 39°35' W 075°35'0 0.0
2018-Feb-18 07:31N 39°35' W 075°35'0 0.0
2018-Feb-18 07:00N 39°35' W 075°35'0 0.0
2018-Feb-18 06:30N 39°35' W 075°35'0 0.0
2018-Feb-18 06:01N 39°35' W 075°35'0 0.1
2018-Feb-18 05:30N 39°35' W 075°35'3 6.2
2018-Feb-18 05:00N 39°33' W 075°32'4 8.9
2018-Feb-18 04:30N 39°29' W 075°34'510.6
2018-Feb-18 04:00N 39°24' W 075°30'611.6
2018-Feb-18 03:30N 39°20' W 075°25'611.5
2018-Feb-18 03:00N 39°16' W 075°20'611.2
2018-Feb-18 02:30N 39°11' W 075°16'711.1
2018-Feb-18 01:53N 39°05' W 075°11'281 8.0
2018-Feb-16 14:34N 42°19' W 070°42'1 9.5
2018-Feb-16 14:25N 42°20' W 070°44'5 9.2
2018-Feb-16 13:52N 42°23' W 070°49'5 8.2
2018-Feb-16 13:17N 42°21' W 070°55'3 8.6
2018-Feb-16 12:55N 42°20' W 070°59'3 8.3
2018-Feb-16 12:30N 42°22' W 071°03'1 0.1
2018-Feb-15 22:06N 42°23' W 071°01'1 3.6
2018-Feb-15 21:52N 42°23' W 071°03'0 0.2
2018-Feb-15 21:29N 42°23' W 071°03'0 0.0
2018-Feb-15 20:59N 42°23' W 071°03'0 0.0
2018-Feb-15 20:20N 42°23' W 071°03'0 0.0
2018-Feb-15 19:56N 42°23' W 071°03'0 0.0
2018-Feb-15 18:50N 42°23' W 071°03'0 0.0
2018-Feb-15 18:29N 42°23' W 071°03'0 0.0
2018-Feb-15 17:59N 42°23' W 071°03'0 0.0
2018-Feb-15 17:29N 42°23' W 071°03'0 0.0
2018-Feb-15 16:59N 42°23' W 071°03'0 0.0
2018-Feb-15 16:29N 42°23' W 071°03'1 0.7
2018-Feb-15 14:35N 42°24' W 071°01'0 1.1
2018-Feb-15 14:27N 42°24' W 071°01'1 2.8
2018-Feb-15 14:00N 42°23' W 071°02'2 2.8
2018-Feb-15 13:21N 42°21' W 071°02'0 0.0
2018-Feb-15 12:43N 42°21' W 071°02'1 4.5
2018-Feb-15 12:30N 42°21' W 071°01'2 2.9
2018-Feb-15 11:52N 42°20' W 070°59'0 0.1
2018-Feb-15 10:43N 42°20' W 070°59'0 0.2
2018-Feb-15 10:01N 42°20' W 070°58'0 0.0
2018-Feb-15 09:58N 42°20' W 070°58'0 0.1
2018-Feb-15 09:28N 42°20' W 070°58'0 0.0
2018-Feb-15 08:58N 42°20' W 070°58'0 0.0
2018-Feb-15 08:19N 42°20' W 070°58'0 0.0
2018-Feb-15 07:58N 42°20' W 070°58'0 0.0
2018-Feb-15 07:25N 42°20' W 070°58'0 0.0
2018-Feb-15 06:46N 42°20' W 070°58'0 0.0
2018-Feb-15 06:25N 42°20' W 070°58'0 0.0
2018-Feb-15 04:43N 42°20' W 070°58'0 0.0
2018-Feb-15 04:25N 42°20' W 070°58'0 0.0
2018-Feb-15 00:25N 42°20' W 070°59'0 0.0
2018-Feb-14 23:58N 42°20' W 070°59'0 0.1
2018-Feb-14 23:28N 42°20' W 070°59'0 0.3
2018-Feb-14 22:55N 42°20' W 070°58'0 0.1
2018-Feb-14 21:40N 42°20' W 070°58'0 0.0
2018-Feb-14 21:16N 42°20' W 070°58'6 1.2
2018-Feb-14 15:58N 42°23' W 070°51'4 8.7
2018-Feb-14 15:30N 42°23' W 070°46'5 8.9
2018-Feb-14 14:58N 42°22' W 070°39'4 9.0
2018-Feb-14 14:30N 42°22' W 070°34'4 8.9
2018-Feb-14 14:00N 42°22' W 070°28'6 9.2
2018-Feb-14 13:22N 42°21' W 070°20'3 9.4
2018-Feb-14 13:01N 42°21' W 070°15'6 9.2
2018-Feb-14 12:20N 42°20' W 070°07'4 9.1
2018-Feb-14 11:55N 42°19' W 070°02'4 9.2
2018-Feb-14 11:29N 42°17' W 069°58'7 9.2
2018-Feb-14 10:43N 42°10' W 069°54'239 5.7
2018-Feb-12 16:37N 39°41' W 074°01'2 8.4
2018-Feb-12 16:25N 39°39' W 074°02'64 5.5
2018-Feb-12 04:54N 39°05' W 075°11'4 8.7
2018-Feb-12 04:26N 39°08' W 075°14'4 8.5
2018-Feb-12 04:00N 39°11' W 075°17'4 8.1
2018-Feb-12 03:30N 39°15' W 075°19'5 9.5
2018-Feb-12 03:00N 39°18' W 075°23'5 9.1
2018-Feb-12 02:30N 39°22' W 075°27'4 8.4
2018-Feb-12 02:00N 39°25' W 075°31'4 7.7
2018-Feb-12 01:30N 39°28' W 075°34'4 7.5
2018-Feb-12 01:01N 39°32' W 075°33'3 5.8
2018-Feb-12 00:31N 39°34' W 075°34'1 2.5
2018-Feb-11 23:59N 39°35' W 075°35'0 0.0
2018-Feb-11 23:29N 39°35' W 075°35'0 0.0
2018-Feb-11 22:59N 39°35' W 075°35'0 0.0
2018-Feb-11 22:29N 39°35' W 075°35'0 0.0
2018-Feb-11 21:59N 39°35' W 075°35'0 0.0
2018-Feb-11 21:29N 39°35' W 075°35'0 0.0
2018-Feb-11 20:59N 39°35' W 075°35'0 0.0
2018-Feb-11 20:30N 39°35' W 075°35'0 0.0
2018-Feb-11 19:59N 39°35' W 075°35'0 0.0
2018-Feb-11 19:29N 39°35' W 075°35'0 0.0
2018-Feb-11 18:59N 39°35' W 075°35'0 0.0
2018-Feb-11 18:29N 39°35' W 075°35'0 0.0
2018-Feb-11 17:59N 39°35' W 075°35'0 0.0
2018-Feb-11 17:30N 39°35' W 075°35'0 0.0
2018-Feb-11 17:00N 39°35' W 075°35'0 0.0
2018-Feb-11 16:29N 39°35' W 075°35'0 0.0
2018-Feb-11 15:59N 39°35' W 075°35'0 0.0
2018-Feb-11 15:26N 39°35' W 075°35'0 0.0
2018-Feb-11 14:59N 39°35' W 075°36'0 0.0
2018-Feb-11 14:29N 39°35' W 075°35'0 0.0
2018-Feb-11 13:59N 39°35' W 075°35'0 0.0
2018-Feb-11 13:29N 39°35' W 075°35'0 0.0
2018-Feb-11 12:59N 39°35' W 075°35'0 0.0
2018-Feb-11 12:29N 39°35' W 075°35'0 0.0
2018-Feb-11 11:59N 39°35' W 075°35'0 0.0
2018-Feb-11 11:29N 39°35' W 075°35'0 0.0
2018-Feb-11 10:59N 39°35' W 075°35'0 0.0
2018-Feb-11 10:30N 39°35' W 075°35'0 0.0
2018-Feb-11 10:00N 39°35' W 075°35'0 0.0
2018-Feb-11 09:30N 39°35' W 075°35'0 0.0
2018-Feb-11 09:00N 39°35' W 075°35'0 0.0
2018-Feb-11 08:30N 39°35' W 075°35'0 0.0
2018-Feb-11 08:00N 39°35' W 075°35'0 0.0
2018-Feb-11 07:30N 39°35' W 075°35'0 0.0
2018-Feb-11 07:00N 39°35' W 075°35'0 0.0
2018-Feb-11 06:30N 39°35' W 075°35'0 0.0
2018-Feb-11 06:00N 39°35' W 075°35'0 0.0
2018-Feb-11 05:30N 39°35' W 075°35'0 0.0
2018-Feb-11 05:00N 39°35' W 075°35'0 0.0
2018-Feb-11 04:30N 39°35' W 075°35'0 0.0
2018-Feb-11 04:00N 39°35' W 075°35'0 0.0
2018-Feb-11 03:30N 39°35' W 075°35'0 0.0
2018-Feb-11 03:00N 39°35' W 075°35'0 0.0
2018-Feb-11 02:30N 39°35' W 075°35'0 0.0
2018-Feb-11 02:00N 39°35' W 075°35'0 0.0
2018-Feb-11 01:30N 39°35' W 075°35'0 0.0
2018-Feb-11 01:00N 39°35' W 075°35'0 0.0
2018-Feb-11 00:30N 39°35' W 075°35'0 0.0
2018-Feb-11 00:00N 39°35' W 075°35'0 0.0
2018-Feb-10 23:30N 39°35' W 075°35'0 0.0
2018-Feb-10 23:00N 39°35' W 075°35'0 0.0
2018-Feb-10 22:30N 39°35' W 075°35'0 0.0
2018-Feb-10 22:00N 39°35' W 075°35'0 0.0
2018-Feb-10 21:30N 39°35' W 075°35'0 0.0
2018-Feb-10 21:00N 39°35' W 075°35'0 0.0
2018-Feb-10 20:30N 39°35' W 075°35'0 0.0
2018-Feb-10 20:00N 39°35' W 075°35'0 0.0
2018-Feb-10 19:30N 39°35' W 075°35'0 0.0
2018-Feb-10 19:00N 39°35' W 075°35'0 0.0
2018-Feb-10 18:30N 39°35' W 075°35'0 0.0
2018-Feb-10 18:01N 39°35' W 075°35'0 0.0
2018-Feb-10 17:31N 39°35' W 075°35'0 0.0
2018-Feb-10 17:00N 39°35' W 075°35'0 0.1
2018-Feb-10 16:30N 39°35' W 075°35'0 0.1
2018-Feb-10 16:00N 39°35' W 075°35'0 0.0
2018-Feb-10 15:31N 39°35' W 075°35'0 0.0
2018-Feb-10 15:01N 39°35' W 075°35'0 0.0
2018-Feb-10 14:30N 39°35' W 075°35'0 0.0
2018-Feb-10 14:01N 39°35' W 075°35'0 0.0
2018-Feb-10 13:31N 39°35' W 075°35'0 0.0
2018-Feb-10 13:00N 39°35' W 075°35'0 0.0
2018-Feb-10 12:31N 39°35' W 075°35'0 0.0
2018-Feb-10 12:00N 39°35' W 075°35'0 0.0
2018-Feb-10 11:31N 39°35' W 075°35'0 0.0
2018-Feb-10 11:00N 39°35' W 075°35'0 0.0
2018-Feb-10 10:31N 39°35' W 075°35'0 0.0
2018-Feb-10 10:00N 39°35' W 075°35'0 0.0
2018-Feb-10 09:31N 39°35' W 075°36'0 0.0
2018-Feb-10 09:01N 39°35' W 075°35'0 0.0
2018-Feb-10 08:31N 39°35' W 075°35'0 0.0
2018-Feb-10 08:01N 39°35' W 075°35'0 0.0
2018-Feb-10 07:31N 39°35' W 075°35'0 0.0
2018-Feb-10 07:01N 39°35' W 075°35'0 0.0
2018-Feb-10 06:31N 39°35' W 075°35'0 0.0
2018-Feb-10 06:01N 39°35' W 075°35'0 0.0
2018-Feb-10 05:31N 39°35' W 075°35'0 0.0
2018-Feb-10 05:01N 39°35' W 075°35'0 0.0
2018-Feb-10 04:30N 39°35' W 075°35'0 0.0
2018-Feb-10 04:00N 39°35' W 075°35'0 0.0
2018-Feb-10 03:31N 39°35' W 075°35'0 0.0
2018-Feb-10 03:00N 39°35' W 075°35'0 0.0
2018-Feb-10 02:30N 39°35' W 075°35'0 0.0
2018-Feb-10 02:00N 39°35' W 075°35'0 0.0
2018-Feb-10 01:30N 39°35' W 075°35'0 0.0
2018-Feb-10 01:01N 39°35' W 075°35'0 0.0
2018-Feb-10 00:31N 39°35' W 075°35'0 0.0
2018-Feb-10 00:01N 39°35' W 075°35'0 0.0
2018-Feb-09 23:30N 39°35' W 075°35'0 0.0
2018-Feb-09 23:01N 39°35' W 075°35'0 0.0
2018-Feb-09 22:46N 39°35' W 075°35'0 0.0
2018-Feb-09 21:31N 39°35' W 075°35'0 0.0
2018-Feb-09 21:01N 39°35' W 075°35'0 0.0
2018-Feb-09 20:31N 39°35' W 075°35'3 2.9
2018-Feb-09 19:30N 39°33' W 075°33'0 0.2
2018-Feb-09 18:01N 39°33' W 075°33'0 0.0
2018-Feb-09 17:31N 39°33' W 075°33'0 0.0
2018-Feb-09 17:01N 39°33' W 075°33'0 0.0
2018-Feb-09 16:01N 39°33' W 075°33'0 0.2
2018-Feb-09 15:30N 39°33' W 075°33'10 6.9
2018-Feb-09 14:00N 39°23' W 075°29'4 8.4
2018-Feb-09 13:31N 39°20' W 075°25'4 8.7
2018-Feb-09 13:00N 39°17' W 075°21'9 9.0
2018-Feb-09 12:00N 39°09' W 075°15'  

Dump ship's entire track history